WI00 weather

Public forecast

Using degrees Fahrenheit for public forecast. Weather courtesy of forecast.io.

Closest aviation weather report (METAR) to Norrie Brook Airport

Closest report is Wausau Downtown Airport, 17.1 nm (31.7 km) W. Retrieved 2020/08/11 23:54 UTC (15 minutes ago):

KAUW 112354Z AUTO 25005KT 9SM CLR 26/13 A2998 RMK AO2 SLP153 T02560133 10278 20256 56002

Closest aviation forecast (TAF) to Norrie Brook Airport

Closest forecast is Wausau Downtown Airport, 17.1 nm (31.7 km) W. Retrieved 2020-08-12 00:22 UTC (0 seconds ago):

TAF KAUW 112320Z 1200/1224 25004KT P6SM SKC FM120900 00000KT P6SM SKC TEMPO 1210/1212 3SM BR FM121400 18003KT P6SM SCT250